Fochabers, United Kingdom
Current Conditions -  °F | °C
As of 5:50 AM on Friday 19 Dec 2014 (Local Time) from EGQS Reporting Station
Few Clouds Few Clouds  
Wind Chill: 24°   Ceiling: Unl
Heat Index: 36°   Visibility: 6mi
Dew Point: 32°   Wind: 24mph
Humidity: 87%   Direction: 250°WSW
Pressure: 29.29"   Gusts: 36mph
Location:  57.61°N, 3.1°W
Report Text: EGQS 190550Z 25021G31KT 9999 FEW012 02/M00 Q0992 BLU
Loading
Personal Weather Stations






























Interactive Weather Map New forecast layout! Learn more

10-Day Weather Forecast

Advertisements
Track Severe Weather on mobile